Terminal Aerodrome Forecast
Issued by NWS

Home | Current Version | Previous Version | Text Only | Print | Product List | Glossary On
Versions: 1 2 3 4 5 6 7 8 9 10 11 12
000
FTUS45 KFGZ 261700
TAFPGA
TAF
KPGA 261736Z 2618/2718 VRB04KT P6SM SCT250
     FM262100 VRB05KT P6SM FEW160 BKN200
     FM270400 VRB04KT P6SM FEW050 BKN090
     FM270800 VRB04KT P6SM VCSH BKN040 OVC060
      TEMPO 2708/2712 6SM -SHRA SCT025 OVC030=

USA.gov is the U.S. government's official web portal to all federal, state and local government web resources and services.